createdAt,value
2024-01-24T00:00:08.038Z,157
2024-01-24T00:00:37.113Z,216
2024-01-24T00:01:09.864Z,216
2024-01-24T00:01:41.166Z,191
2024-01-24T00:02:14.265Z,191
2024-01-24T00:02:45.122Z,191
2024-01-24T00:03:18.234Z,191
2024-01-24T00:03:49.323Z,191
2024-01-24T00:04:22.025Z,191
2024-01-24T00:04:53.038Z,160
2024-01-24T00:05:26.779Z,160
2024-01-24T00:05:57.199Z,160
2024-01-24T00:06:30.754Z,183
2024-01-24T00:07:01.233Z,182
2024-01-24T00:07:34.282Z,190
2024-01-24T00:08:05.043Z,190
2024-01-24T00:08:37.865Z,190
2024-01-24T00:09:09.244Z,190
2024-01-24T00:09:42.150Z,190
2024-01-24T00:10:13.513Z,190
2024-01-24T00:10:45.954Z,206
2024-01-24T00:11:17.241Z,167
2024-01-24T00:11:49.967Z,167
2024-01-24T00:12:21.259Z,183
2024-01-24T00:12:54.108Z,183
2024-01-24T00:13:25.264Z,183
2024-01-24T00:13:57.862Z,183
2024-01-24T00:14:29.193Z,174
2024-01-24T00:15:03.631Z,170
2024-01-24T00:15:33.190Z,170
2024-01-24T00:16:06.159Z,170
2024-01-24T00:16:37.198Z,174
2024-01-24T00:17:10.093Z,170
2024-01-24T00:17:41.126Z,174
2024-01-24T00:18:14.010Z,170
2024-01-24T00:18:45.307Z,173
2024-01-24T00:19:17.969Z,174
2024-01-24T00:19:49.136Z,174
2024-01-24T00:20:22.419Z,174
2024-01-24T00:20:53.019Z,174
2024-01-24T00:21:26.095Z,174
2024-01-24T00:21:57.171Z,171
2024-01-24T00:22:30.000Z,173
2024-01-24T00:23:01.151Z,173
2024-01-24T00:23:33.811Z,173
2024-01-24T00:24:05.227Z,177
2024-01-24T00:24:38.229Z,180
2024-01-24T00:25:09.484Z,177
2024-01-24T00:25:41.843Z,177
2024-01-24T00:26:13.265Z,177
2024-01-24T00:26:46.232Z,177
2024-01-24T00:27:17.548Z,177
2024-01-24T00:27:50.225Z,177
2024-01-24T00:28:21.118Z,177
2024-01-24T00:28:53.846Z,223
2024-01-24T00:29:25.268Z,188
2024-01-24T00:29:57.943Z,223
2024-01-24T00:30:30.534Z,180
2024-01-24T00:31:02.017Z,180
2024-01-24T00:31:33.256Z,180
2024-01-24T00:32:05.955Z,180
2024-01-24T00:32:37.147Z,177
2024-01-24T00:33:09.983Z,177
2024-01-24T00:33:41.266Z,152
2024-01-24T00:34:13.940Z,156
2024-01-24T00:34:45.215Z,137
2024-01-24T00:35:18.308Z,217
2024-01-24T00:35:49.209Z,217
2024-01-24T00:36:22.185Z,182
2024-01-24T00:36:53.134Z,156
2024-01-24T00:37:26.254Z,174
2024-01-24T00:37:57.130Z,174
2024-01-24T00:38:29.937Z,182
2024-01-24T00:39:01.290Z,92
2024-01-24T00:39:33.831Z,163
2024-01-24T00:40:05.521Z,149
2024-01-24T00:40:37.919Z,149
2024-01-24T00:41:09.214Z,149
2024-01-24T00:41:42.143Z,149
2024-01-24T00:42:13.159Z,122
2024-01-24T00:42:46.216Z,182
2024-01-24T00:43:17.048Z,141
2024-01-24T00:43:49.972Z,141
2024-01-24T00:44:21.206Z,141
2024-01-24T00:44:54.101Z,182
2024-01-24T00:45:26.529Z,149
2024-01-24T00:45:58.187Z,163
2024-01-24T00:46:29.285Z,179
2024-01-24T00:47:02.013Z,179
2024-01-24T00:47:33.199Z,179
2024-01-24T00:48:06.143Z,141
2024-01-24T00:48:37.441Z,141
2024-01-24T00:49:10.030Z,141
2024-01-24T00:49:41.218Z,141
2024-01-24T00:50:14.478Z,141
2024-01-24T00:50:45.072Z,141
2024-01-24T00:51:18.035Z,141
2024-01-24T00:51:49.233Z,91
2024-01-24T00:52:22.053Z,91
2024-01-24T00:52:53.202Z,112
2024-01-24T00:53:26.050Z,92
2024-01-24T00:53:57.200Z,85
2024-01-24T00:54:29.894Z,86
2024-01-24T00:55:01.794Z,94
2024-01-24T00:55:34.964Z,94
2024-01-24T00:56:05.033Z,94
2024-01-24T00:56:37.808Z,94
2024-01-24T00:57:09.189Z,86
2024-01-24T00:57:42.250Z,86
2024-01-24T00:58:13.076Z,86
2024-01-24T00:58:45.869Z,86
2024-01-24T00:59:17.207Z,94
2024-01-24T00:59:49.962Z,99
2024-01-24T01:00:23.223Z,94
2024-01-24T01:00:55.976Z,99
2024-01-24T01:01:25.293Z,94
2024-01-24T01:01:58.911Z,94
2024-01-24T01:02:29.271Z,94
2024-01-24T01:03:02.301Z,107
2024-01-24T01:03:33.157Z,98
2024-01-24T01:04:05.997Z,98
2024-01-24T01:04:37.197Z,98
2024-01-24T01:05:10.350Z,107
2024-01-24T01:05:41.195Z,107
2024-01-24T01:06:13.971Z,107
2024-01-24T01:06:45.290Z,107
2024-01-24T01:07:18.110Z,107
2024-01-24T01:07:49.087Z,107
2024-01-24T01:08:21.940Z,107
2024-01-24T01:08:53.267Z,107
2024-01-24T01:09:26.032Z,107
2024-01-24T01:09:57.160Z,107
2024-01-24T01:10:30.375Z,107
2024-01-24T01:11:01.197Z,92
2024-01-24T01:11:33.761Z,97
2024-01-24T01:12:05.178Z,98
2024-01-24T01:12:38.141Z,92
2024-01-24T01:13:09.107Z,97
2024-01-24T01:13:41.961Z,95
2024-01-24T01:14:13.200Z,95
2024-01-24T01:14:45.968Z,122
2024-01-24T01:15:18.358Z,122
2024-01-24T01:15:50.325Z,89
2024-01-24T01:16:20.982Z,95
2024-01-24T01:16:53.930Z,105
2024-01-24T01:17:25.213Z,94
2024-01-24T01:17:58.361Z,94
2024-01-24T01:18:29.214Z,92
2024-01-24T01:19:02.280Z,92
2024-01-24T01:19:33.191Z,92
2024-01-24T01:20:07.115Z,92
2024-01-24T01:20:37.116Z,92
2024-01-24T01:21:10.098Z,116
2024-01-24T01:21:41.311Z,107
2024-01-24T01:22:14.061Z,107
2024-01-24T01:22:45.215Z,107
2024-01-24T01:23:18.151Z,107
2024-01-24T01:23:49.057Z,107
2024-01-24T01:24:21.938Z,107
2024-01-24T01:24:53.265Z,107
2024-01-24T01:25:26.332Z,107
2024-01-24T01:25:57.095Z,107
2024-01-24T01:26:30.185Z,107
2024-01-24T01:27:01.318Z,107
2024-01-24T01:27:37.030Z,107
2024-01-24T01:28:05.113Z,107
2024-01-24T01:28:39.311Z,107
2024-01-24T01:29:09.259Z,107
2024-01-24T01:29:41.976Z,123
2024-01-24T01:30:15.346Z,108
2024-01-24T01:30:46.284Z,108
2024-01-24T01:31:17.083Z,108
2024-01-24T01:31:50.073Z,108
2024-01-24T01:32:21.173Z,108
2024-01-24T01:32:54.109Z,108
2024-01-24T01:33:25.227Z,115
2024-01-24T01:33:58.057Z,108
2024-01-24T01:34:29.458Z,120
2024-01-24T01:35:02.373Z,120
2024-01-24T01:35:33.179Z,106
2024-01-24T01:36:14.275Z,115
2024-01-24T01:36:37.059Z,120
2024-01-24T01:37:09.961Z,172
2024-01-24T01:37:41.186Z,172
2024-01-24T01:38:15.175Z,172
2024-01-24T01:38:45.109Z,172
2024-01-24T01:39:17.830Z,172
2024-01-24T01:39:49.271Z,171
2024-01-24T01:40:22.380Z,171
2024-01-24T01:40:53.241Z,171
2024-01-24T01:41:25.990Z,171
2024-01-24T01:41:57.239Z,171
2024-01-24T01:42:30.089Z,171
2024-01-24T01:43:01.263Z,189
2024-01-24T01:43:34.030Z,189
2024-01-24T01:44:05.103Z,162
2024-01-24T01:44:38.151Z,162
2024-01-24T01:45:10.828Z,184
2024-01-24T01:45:42.251Z,184
2024-01-24T01:46:13.203Z,160
2024-01-24T01:46:46.023Z,160
2024-01-24T01:47:17.268Z,160
2024-01-24T01:48:05.208Z,160
2024-01-24T01:48:37.185Z,189
2024-01-24T01:49:09.167Z,180
2024-01-24T01:49:41.273Z,185
2024-01-24T01:50:13.818Z,180
2024-01-24T01:50:45.892Z,180
2024-01-24T01:51:17.239Z,224
2024-01-24T01:51:50.171Z,179
2024-01-24T01:52:21.049Z,179
2024-01-24T01:52:54.055Z,187
2024-01-24T01:53:25.181Z,181
2024-01-24T01:53:58.851Z,181
2024-01-24T01:54:29.232Z,181
2024-01-24T01:55:02.551Z,181
2024-01-24T01:55:33.060Z,148
2024-01-24T01:56:05.906Z,210
2024-01-24T01:56:37.160Z,210
2024-01-24T01:57:10.271Z,210
2024-01-24T01:57:41.129Z,181
2024-01-24T01:58:14.013Z,181
2024-01-24T01:58:45.254Z,169
2024-01-24T01:59:17.776Z,187
2024-01-24T01:59:49.133Z,187
2024-01-24T02:00:26.223Z,187
2024-01-24T02:00:53.496Z,187
2024-01-24T02:01:26.092Z,140
2024-01-24T02:01:57.147Z,156
2024-01-24T02:02:30.296Z,148
2024-01-24T02:03:01.216Z,156
2024-01-24T02:03:34.362Z,149
2024-01-24T02:04:05.320Z,149
2024-01-24T02:04:38.483Z,148
2024-01-24T02:05:09.466Z,149
2024-01-24T02:05:42.281Z,149
2024-01-24T02:06:13.422Z,149
2024-01-24T02:06:46.079Z,149
2024-01-24T02:07:17.405Z,149
2024-01-24T02:07:50.186Z,149
2024-01-24T02:08:21.043Z,149
2024-01-24T02:08:53.947Z,149
2024-01-24T02:09:25.232Z,149
2024-01-24T02:09:58.282Z,149
2024-01-24T02:10:29.553Z,202
2024-01-24T02:11:02.192Z,183
2024-01-24T02:11:33.249Z,183
2024-01-24T02:12:06.099Z,175
2024-01-24T02:12:37.168Z,175
2024-01-24T02:13:09.988Z,175
2024-01-24T02:13:41.357Z,175
2024-01-24T02:14:14.034Z,175
2024-01-24T02:14:45.206Z,183
2024-01-24T02:15:19.715Z,175
2024-01-24T02:15:49.377Z,175
2024-01-24T02:16:21.926Z,175
2024-01-24T02:16:53.283Z,175
2024-01-24T02:17:26.016Z,175
2024-01-24T02:17:57.185Z,175
2024-01-24T02:18:30.027Z,175
2024-01-24T02:19:01.428Z,175
2024-01-24T02:19:33.929Z,175
2024-01-24T02:20:05.836Z,175
2024-01-24T02:20:38.008Z,108
2024-01-24T02:21:09.123Z,108
2024-01-24T02:21:43.154Z,108
2024-01-24T02:22:13.213Z,108
2024-01-24T02:22:46.099Z,108
2024-01-24T02:23:17.063Z,217
2024-01-24T02:23:49.912Z,218
2024-01-24T02:24:21.224Z,217
2024-01-24T02:24:54.149Z,218
2024-01-24T02:25:25.545Z,139
2024-01-24T02:25:58.095Z,179
2024-01-24T02:26:29.263Z,193
2024-01-24T02:27:03.766Z,179
2024-01-24T02:27:33.345Z,193
2024-01-24T02:28:06.177Z,193
2024-01-24T02:28:37.056Z,193
2024-01-24T02:29:09.969Z,135
2024-01-24T02:29:41.191Z,144
2024-01-24T02:30:15.351Z,144
2024-01-24T02:30:45.344Z,220
2024-01-24T02:31:18.118Z,220
2024-01-24T02:31:49.198Z,220
2024-01-24T02:32:21.999Z,213
2024-01-24T02:32:53.218Z,213
2024-01-24T02:33:26.243Z,213
2024-01-24T02:33:57.128Z,144
2024-01-24T02:34:30.365Z,252
2024-01-24T02:35:01.650Z,227
2024-01-24T02:35:34.171Z,236
2024-01-24T02:36:05.195Z,227
2024-01-24T02:36:39.183Z,227
2024-01-24T02:37:09.128Z,227
2024-01-24T02:37:42.126Z,227
2024-01-24T02:38:13.266Z,236
2024-01-24T02:38:45.969Z,251
2024-01-24T02:39:17.165Z,251
2024-01-24T02:39:51.066Z,212
2024-01-24T02:40:21.956Z,225
2024-01-24T02:40:53.884Z,242
2024-01-24T02:41:25.227Z,225
2024-01-24T02:41:57.919Z,247
2024-01-24T02:42:29.163Z,227
2024-01-24T02:43:02.345Z,227
2024-01-24T02:43:33.268Z,227
2024-01-24T02:44:05.895Z,227
2024-01-24T02:44:37.137Z,227
2024-01-24T02:45:12.145Z,234
2024-01-24T02:45:41.300Z,234
2024-01-24T02:46:14.158Z,242
2024-01-24T02:46:45.315Z,242
2024-01-24T02:47:18.025Z,242
2024-01-24T02:47:49.176Z,240
2024-01-24T02:48:26.183Z,242
2024-01-24T02:48:53.481Z,242
2024-01-24T02:49:25.226Z,242
2024-01-24T02:49:57.989Z,242
2024-01-24T02:50:29.799Z,242
2024-01-24T02:51:02.088Z,242
2024-01-24T02:51:33.320Z,242
2024-01-24T02:52:06.338Z,242
2024-01-24T02:52:37.140Z,242
2024-01-24T02:53:09.951Z,251
2024-01-24T02:53:41.219Z,231
2024-01-24T02:54:14.234Z,231
2024-01-24T02:54:45.107Z,231
2024-01-24T02:55:18.447Z,231
2024-01-24T02:55:49.359Z,226
2024-01-24T02:56:22.012Z,234
2024-01-24T02:56:53.171Z,242
2024-01-24T02:57:26.135Z,242
2024-01-24T02:57:57.401Z,242
2024-01-24T02:58:29.789Z,234
2024-01-24T02:59:01.362Z,234
2024-01-24T02:59:34.120Z,251
2024-01-24T03:00:06.986Z,251
2024-01-24T03:00:38.335Z,251
2024-01-24T03:01:09.459Z,251
2024-01-24T03:01:42.093Z,251
2024-01-24T03:02:13.253Z,251
2024-01-24T03:02:46.216Z,237
2024-01-24T03:03:17.346Z,255
2024-01-24T03:03:50.150Z,275
2024-01-24T03:04:22.058Z,234
2024-01-24T03:04:54.073Z,238
2024-01-24T03:05:25.569Z,241
2024-01-24T03:05:58.158Z,241
2024-01-24T03:06:29.400Z,241
2024-01-24T03:07:07.988Z,241
2024-01-24T03:07:33.229Z,241
2024-01-24T03:08:05.279Z,241
2024-01-24T03:08:37.350Z,241
2024-01-24T03:09:09.122Z,241
2024-01-24T03:09:42.070Z,241
2024-01-24T03:10:13.711Z,231
2024-01-24T03:10:45.946Z,199
2024-01-24T03:11:17.148Z,234
2024-01-24T03:11:50.230Z,225
2024-01-24T03:12:21.154Z,233
2024-01-24T03:12:54.060Z,233
2024-01-24T03:13:25.293Z,233
2024-01-24T03:14:00.009Z,233
2024-01-24T03:14:29.174Z,233
2024-01-24T03:15:04.077Z,242
2024-01-24T03:15:33.520Z,233
2024-01-24T03:16:06.062Z,233
2024-01-24T03:16:37.110Z,210
2024-01-24T03:17:10.061Z,233
2024-01-24T03:17:41.198Z,233
2024-01-24T03:18:14.063Z,263
2024-01-24T03:18:45.358Z,266
2024-01-24T03:19:18.120Z,266
2024-01-24T03:19:49.137Z,235
2024-01-24T03:20:22.532Z,244
2024-01-24T03:20:53.258Z,244
2024-01-24T03:21:25.883Z,266
2024-01-24T03:21:57.316Z,235
2024-01-24T03:22:30.153Z,235
2024-01-24T03:23:04.127Z,263
2024-01-24T03:23:33.943Z,263
2024-01-24T03:24:05.160Z,263
2024-01-24T03:24:39.186Z,266
2024-01-24T03:25:09.491Z,265
2024-01-24T03:25:25.265Z,265
2024-01-24T03:25:57.605Z,265
2024-01-24T03:26:29.157Z,265
2024-01-24T03:27:02.095Z,265
2024-01-24T03:27:33.287Z,229
2024-01-24T03:28:05.890Z,235
2024-01-24T03:28:37.157Z,286
2024-01-24T03:29:10.101Z,234
2024-01-24T03:29:41.277Z,234
2024-01-24T03:30:15.302Z,186
2024-01-24T03:30:45.545Z,235
2024-01-24T03:31:19.090Z,235
2024-01-24T03:31:49.171Z,229
2024-01-24T03:32:22.134Z,229
2024-01-24T03:32:53.395Z,229
2024-01-24T03:33:28.834Z,229
2024-01-24T03:33:57.250Z,229
2024-01-24T03:34:29.975Z,281
2024-01-24T03:35:01.681Z,229
2024-01-24T03:35:34.008Z,229
2024-01-24T03:36:05.196Z,229
2024-01-24T03:36:38.214Z,229
2024-01-24T03:37:09.239Z,225
2024-01-24T03:37:42.099Z,252
2024-01-24T03:38:13.346Z,252
2024-01-24T03:38:45.899Z,252
2024-01-24T03:39:17.226Z,252
2024-01-24T03:39:50.265Z,252
2024-01-24T03:40:21.696Z,252
2024-01-24T03:40:54.232Z,245
2024-01-24T03:41:25.231Z,239
2024-01-24T03:41:58.245Z,239
2024-01-24T03:42:29.173Z,235
2024-01-24T03:43:02.481Z,351
2024-01-24T03:43:33.308Z,239
2024-01-24T03:44:06.202Z,239
2024-01-24T03:44:37.135Z,229
2024-01-24T03:45:11.524Z,239
2024-01-24T03:45:41.546Z,233
2024-01-24T03:46:14.097Z,239
2024-01-24T03:46:45.291Z,249
2024-01-24T03:47:18.214Z,239
2024-01-24T03:47:49.113Z,249
2024-01-24T03:48:22.147Z,270
2024-01-24T03:48:53.359Z,239
2024-01-24T03:49:26.216Z,231
2024-01-24T03:49:57.223Z,231
2024-01-24T03:50:32.135Z,231
2024-01-24T03:51:01.247Z,207
2024-01-24T03:51:34.048Z,255
2024-01-24T03:52:05.234Z,255
2024-01-24T03:52:38.600Z,255
2024-01-24T03:53:09.322Z,255
2024-01-24T03:53:42.027Z,255
2024-01-24T03:54:13.278Z,255
2024-01-24T03:54:46.064Z,255
2024-01-24T03:55:17.568Z,255
2024-01-24T03:55:50.219Z,244
2024-01-24T03:56:21.251Z,237
2024-01-24T03:56:54.107Z,237
2024-01-24T03:57:25.156Z,237
2024-01-24T03:57:59.324Z,237
2024-01-24T03:58:29.298Z,237
2024-01-24T03:59:01.945Z,212
2024-01-24T03:59:33.225Z,212
2024-01-24T04:00:08.286Z,212
2024-01-24T04:00:37.469Z,212
2024-01-24T04:01:12.230Z,212
2024-01-24T04:01:41.254Z,212
2024-01-24T04:02:14.442Z,249
2024-01-24T04:02:45.277Z,249
2024-01-24T04:03:18.138Z,276
2024-01-24T04:03:49.344Z,198
2024-01-24T04:04:22.327Z,198
2024-01-24T04:04:53.236Z,198
2024-01-24T04:05:26.573Z,198
2024-01-24T04:05:57.425Z,202
2024-01-24T04:06:30.321Z,202
2024-01-24T04:07:01.439Z,199
2024-01-24T04:07:34.217Z,267
2024-01-24T04:08:05.281Z,267
2024-01-24T04:08:37.880Z,199
2024-01-24T04:09:09.229Z,199
2024-01-24T04:09:42.098Z,199
2024-01-24T04:10:13.559Z,236
2024-01-24T04:11:01.374Z,197
2024-01-24T04:11:33.205Z,197
2024-01-24T04:12:05.223Z,197
2024-01-24T04:12:37.382Z,197
2024-01-24T04:13:09.126Z,235
2024-01-24T04:13:26.190Z,235
2024-01-24T04:13:57.154Z,235
2024-01-24T04:14:30.069Z,228
2024-01-24T04:15:03.455Z,228
2024-01-24T04:15:36.220Z,228
2024-01-24T04:16:05.288Z,238
2024-01-24T04:16:39.085Z,216
2024-01-24T04:17:09.323Z,220
2024-01-24T04:17:42.174Z,220
2024-01-24T04:18:13.409Z,220
2024-01-24T04:18:46.021Z,220
2024-01-24T04:19:17.186Z,220
2024-01-24T04:19:50.137Z,220
2024-01-24T04:20:21.630Z,220
2024-01-24T04:20:54.116Z,220
2024-01-24T04:21:25.265Z,220
2024-01-24T04:21:58.097Z,216
2024-01-24T04:22:29.347Z,216
2024-01-24T04:23:02.387Z,244
2024-01-24T04:23:33.229Z,244
2024-01-24T04:24:06.340Z,217
2024-01-24T04:24:37.425Z,244
2024-01-24T04:25:10.580Z,217
2024-01-24T04:25:41.256Z,244
2024-01-24T04:26:14.226Z,244
2024-01-24T04:26:45.258Z,258
2024-01-24T04:27:18.813Z,245
2024-01-24T04:27:49.329Z,250
2024-01-24T04:28:22.064Z,209
2024-01-24T04:28:53.135Z,209
2024-01-24T04:29:26.023Z,234
2024-01-24T04:29:57.286Z,241
2024-01-24T04:30:31.629Z,247
2024-01-24T04:31:01.430Z,247
2024-01-24T04:31:35.847Z,239
2024-01-24T04:32:05.303Z,247
2024-01-24T04:32:41.935Z,237
2024-01-24T04:33:09.278Z,237
2024-01-24T04:33:41.474Z,237
2024-01-24T04:34:13.469Z,232
2024-01-24T04:34:45.286Z,232
2024-01-24T04:35:17.748Z,227
2024-01-24T04:35:49.361Z,232
2024-01-24T04:36:22.096Z,232
2024-01-24T04:36:53.288Z,232
2024-01-24T04:37:26.232Z,232
2024-01-24T04:37:57.152Z,232
2024-01-24T04:38:30.346Z,232
2024-01-24T04:39:01.318Z,231
2024-01-24T04:39:34.187Z,231
2024-01-24T04:40:05.612Z,231
2024-01-24T04:40:38.121Z,233
2024-01-24T04:41:09.314Z,233
2024-01-24T04:41:42.171Z,227
2024-01-24T04:42:16.860Z,227
2024-01-24T04:42:46.180Z,225
2024-01-24T04:43:17.203Z,224
2024-01-24T04:43:50.109Z,224
2024-01-24T04:44:21.251Z,225
2024-01-24T04:44:54.402Z,224
2024-01-24T04:45:26.571Z,225
2024-01-24T04:45:58.788Z,225
2024-01-24T04:46:29.358Z,224
2024-01-24T04:47:03.772Z,224
2024-01-24T04:47:33.452Z,225
2024-01-24T04:48:07.092Z,225
2024-01-24T04:48:37.374Z,225
2024-01-24T04:49:23.028Z,225
2024-01-24T04:49:45.050Z,227
2024-01-24T04:50:15.280Z,227
2024-01-24T04:50:45.296Z,227
2024-01-24T04:51:18.084Z,227
2024-01-24T04:51:49.374Z,227
2024-01-24T04:52:22.014Z,227
2024-01-24T04:52:53.130Z,227
2024-01-24T04:53:26.028Z,227
2024-01-24T04:53:57.329Z,227
2024-01-24T04:54:30.115Z,227
2024-01-24T04:55:01.768Z,227
2024-01-24T04:55:34.141Z,227
2024-01-24T04:56:05.203Z,227
2024-01-24T04:56:37.998Z,283
2024-01-24T04:57:09.231Z,215
2024-01-24T04:57:42.168Z,210
2024-01-24T04:58:13.225Z,210
2024-01-24T04:58:45.858Z,210
2024-01-24T04:59:17.265Z,210
2024-01-24T04:59:55.950Z,220
2024-01-24T05:00:22.954Z,242
2024-01-24T05:00:54.214Z,242
2024-01-24T05:01:25.324Z,242
2024-01-24T05:01:57.902Z,254
2024-01-24T05:02:29.363Z,286
2024-01-24T05:03:04.274Z,226
2024-01-24T05:03:33.191Z,249
2024-01-24T05:04:06.176Z,226
2024-01-24T05:04:37.311Z,220
2024-01-24T05:05:10.419Z,220
2024-01-24T05:05:41.735Z,220
2024-01-24T05:06:14.307Z,220
2024-01-24T05:06:45.267Z,215
2024-01-24T05:07:19.493Z,283
2024-01-24T05:07:49.312Z,283
2024-01-24T05:08:22.450Z,151
2024-01-24T05:08:53.164Z,192
2024-01-24T05:09:26.567Z,192
2024-01-24T05:09:57.341Z,168
2024-01-24T05:10:31.381Z,229
2024-01-24T05:11:01.227Z,229
2024-01-24T05:11:34.140Z,229
2024-01-24T05:12:05.262Z,205
2024-01-24T05:12:38.233Z,234
2024-01-24T05:13:09.224Z,234
2024-01-24T05:13:42.149Z,234
2024-01-24T05:14:13.342Z,234
2024-01-24T05:14:45.900Z,234
2024-01-24T05:15:18.596Z,234
2024-01-24T05:15:50.529Z,261
2024-01-24T05:16:21.231Z,234
2024-01-24T05:16:54.082Z,191
2024-01-24T05:17:25.340Z,228
2024-01-24T05:17:58.249Z,228
2024-01-24T05:18:29.480Z,234
2024-01-24T05:19:02.175Z,234
2024-01-24T05:19:33.502Z,234
2024-01-24T05:20:07.622Z,231
2024-01-24T05:20:37.234Z,231
2024-01-24T05:21:10.038Z,231
2024-01-24T05:21:41.200Z,231
2024-01-24T05:22:14.248Z,231
2024-01-24T05:22:45.331Z,227
2024-01-24T05:23:24.976Z,231
2024-01-24T05:23:50.058Z,231
2024-01-24T05:24:21.202Z,231
2024-01-24T05:24:53.386Z,231
2024-01-24T05:25:25.508Z,231
2024-01-24T05:25:57.915Z,231
2024-01-24T05:26:29.366Z,231
2024-01-24T05:27:02.228Z,231
2024-01-24T05:27:33.167Z,234
2024-01-24T05:28:06.120Z,218
2024-01-24T05:28:37.281Z,252
2024-01-24T05:29:09.919Z,227
2024-01-24T05:29:41.228Z,252
2024-01-24T05:30:20.592Z,190
2024-01-24T05:30:45.523Z,254
2024-01-24T05:31:18.044Z,246
2024-01-24T05:31:49.268Z,246
2024-01-24T05:32:22.385Z,201
2024-01-24T05:32:53.125Z,248
2024-01-24T05:33:26.508Z,222
2024-01-24T05:33:57.407Z,219
2024-01-24T05:34:30.461Z,248
2024-01-24T05:35:02.366Z,248
2024-01-24T05:35:34.187Z,235
2024-01-24T05:36:05.273Z,227
2024-01-24T05:36:38.108Z,235
2024-01-24T05:37:09.183Z,227
2024-01-24T05:37:42.083Z,227
2024-01-24T05:38:13.286Z,243
2024-01-24T05:38:45.899Z,243
2024-01-24T05:39:17.221Z,243
2024-01-24T05:39:50.240Z,243
2024-01-24T05:40:22.238Z,243
2024-01-24T05:40:53.987Z,243
2024-01-24T05:41:25.292Z,219
2024-01-24T05:41:58.252Z,219
2024-01-24T05:42:29.225Z,275
2024-01-24T05:43:02.522Z,215
2024-01-24T05:43:33.311Z,243
2024-01-24T05:44:06.315Z,243
2024-01-24T05:44:37.172Z,243
2024-01-24T05:45:12.288Z,255
2024-01-24T05:45:41.388Z,247
2024-01-24T05:45:58.035Z,247
2024-01-24T05:46:29.185Z,247
2024-01-24T05:47:01.274Z,247
2024-01-24T05:47:35.276Z,221
2024-01-24T05:48:05.421Z,221
2024-01-24T05:48:38.299Z,249
2024-01-24T05:49:10.586Z,249
2024-01-24T05:49:43.335Z,221
2024-01-24T05:50:13.503Z,221
2024-01-24T05:50:46.027Z,221
2024-01-24T05:51:17.345Z,92
2024-01-24T05:51:50.348Z,249
2024-01-24T05:52:21.194Z,249
2024-01-24T05:52:55.012Z,249
2024-01-24T05:53:25.298Z,249
2024-01-24T05:53:57.919Z,225
2024-01-24T05:54:29.160Z,209
2024-01-24T05:55:02.669Z,225
2024-01-24T05:55:33.336Z,225
2024-01-24T05:56:06.212Z,265
2024-01-24T05:56:37.216Z,265
2024-01-24T05:57:10.177Z,265
2024-01-24T05:57:41.249Z,247
2024-01-24T05:58:13.861Z,233
2024-01-24T05:58:45.267Z,265
2024-01-24T05:59:18.117Z,265
2024-01-24T05:59:49.236Z,265
2024-01-24T06:00:23.957Z,265
2024-01-24T06:00:53.545Z,224
2024-01-24T06:01:26.169Z,245
2024-01-24T06:01:57.373Z,268
2024-01-24T06:02:30.343Z,245
2024-01-24T06:03:01.397Z,245
2024-01-24T06:03:34.116Z,245
2024-01-24T06:04:05.346Z,245
2024-01-24T06:04:38.806Z,229
2024-01-24T06:05:09.640Z,229
2024-01-24T06:05:42.146Z,245
2024-01-24T06:06:13.388Z,245
2024-01-24T06:06:46.288Z,147
2024-01-24T06:07:17.517Z,236
2024-01-24T06:07:50.133Z,236
2024-01-24T06:08:21.288Z,236
2024-01-24T06:08:54.914Z,248
2024-01-24T06:09:25.233Z,248
2024-01-24T06:09:58.020Z,240
2024-01-24T06:10:29.716Z,277
2024-01-24T06:11:01.987Z,240
2024-01-24T06:11:33.289Z,218
2024-01-24T06:12:06.112Z,240
2024-01-24T06:12:37.168Z,240
2024-01-24T06:13:10.096Z,223
2024-01-24T06:13:41.257Z,220
2024-01-24T06:14:14.157Z,220
2024-01-24T06:14:45.281Z,220
2024-01-24T06:15:19.711Z,220
2024-01-24T06:15:49.734Z,220
2024-01-24T06:16:21.963Z,220
2024-01-24T06:16:53.265Z,220
2024-01-24T06:17:26.283Z,220
2024-01-24T06:17:57.419Z,220
2024-01-24T06:18:30.233Z,220
2024-01-24T06:19:01.400Z,223
2024-01-24T06:19:34.254Z,220
2024-01-24T06:20:05.590Z,220
2024-01-24T06:20:38.158Z,223
2024-01-24T06:21:09.399Z,178
2024-01-24T06:22:13.230Z,228
2024-01-24T06:22:46.175Z,228
2024-01-24T06:23:17.318Z,228
2024-01-24T06:23:49.831Z,245
2024-01-24T06:24:22.658Z,221
2024-01-24T06:24:55.752Z,221
2024-01-24T06:25:25.579Z,221
2024-01-24T06:25:57.893Z,245
2024-01-24T06:26:29.233Z,245
2024-01-24T06:27:02.433Z,221
2024-01-24T06:27:33.266Z,221
2024-01-24T06:28:06.224Z,248
2024-01-24T06:28:37.255Z,221
2024-01-24T06:29:10.176Z,248
2024-01-24T06:30:16.465Z,248
2024-01-24T06:30:22.111Z,248
2024-01-24T06:30:45.333Z,245
2024-01-24T06:31:18.310Z,233
2024-01-24T06:31:49.285Z,245
2024-01-24T06:32:22.294Z,245
2024-01-24T06:32:53.588Z,245
2024-01-24T06:33:26.302Z,245
2024-01-24T06:33:57.436Z,254
2024-01-24T06:34:30.227Z,254
2024-01-24T06:35:02.005Z,242
2024-01-24T06:35:34.042Z,242
2024-01-24T06:36:05.349Z,242
2024-01-24T06:36:38.541Z,242
2024-01-24T06:37:09.215Z,241
2024-01-24T06:37:42.095Z,233
2024-01-24T06:38:13.354Z,233
2024-01-24T06:38:46.383Z,233
2024-01-24T06:39:17.374Z,233
2024-01-24T06:39:50.181Z,233
2024-01-24T06:40:21.707Z,233
2024-01-24T06:40:54.036Z,241
2024-01-24T06:41:25.305Z,233
2024-01-24T06:41:58.077Z,233
2024-01-24T06:42:29.251Z,192
2024-01-24T06:43:02.338Z,244
2024-01-24T06:43:33.318Z,244
2024-01-24T06:44:05.970Z,244
2024-01-24T06:44:37.287Z,259
2024-01-24T06:45:11.592Z,259
2024-01-24T06:45:41.336Z,259
2024-01-24T06:46:13.987Z,174
2024-01-24T06:46:45.377Z,241
2024-01-24T06:47:24.902Z,245
2024-01-24T06:47:49.419Z,168
2024-01-24T06:48:21.472Z,168
2024-01-24T06:48:53.409Z,168
2024-01-24T06:49:25.344Z,168
2024-01-24T06:49:58.209Z,168
2024-01-24T06:50:29.711Z,168
2024-01-24T06:51:02.013Z,168
2024-01-24T06:51:33.197Z,168
2024-01-24T06:52:06.074Z,168
2024-01-24T06:52:37.337Z,168
2024-01-24T06:53:15.538Z,168
2024-01-24T06:53:41.321Z,154
2024-01-24T06:54:13.337Z,269
2024-01-24T06:54:46.056Z,192
2024-01-24T06:55:17.694Z,149
2024-01-24T06:55:50.238Z,210
2024-01-24T06:56:21.332Z,221
2024-01-24T06:56:53.958Z,184
2024-01-24T06:57:25.292Z,215
2024-01-24T06:57:58.382Z,215
2024-01-24T06:58:29.174Z,227
2024-01-24T06:59:02.234Z,215
2024-01-24T06:59:33.357Z,211
2024-01-24T07:00:07.921Z,211
2024-01-24T07:00:37.729Z,12
2024-01-24T07:01:11.009Z,214
2024-01-24T07:01:41.236Z,229
2024-01-24T07:01:57.425Z,229
2024-01-24T07:02:29.325Z,221
2024-01-24T07:03:01.218Z,221
2024-01-24T07:03:34.284Z,212
2024-01-24T07:04:05.589Z,225
2024-01-24T07:04:38.604Z,225
2024-01-24T07:05:10.308Z,225
2024-01-24T07:05:42.127Z,221
2024-01-24T07:06:13.104Z,221
2024-01-24T07:06:45.979Z,225
2024-01-24T07:07:17.478Z,221
2024-01-24T07:07:50.361Z,221
2024-01-24T07:08:21.141Z,221
2024-01-24T07:08:55.769Z,221
2024-01-24T07:09:25.326Z,221
2024-01-24T07:09:58.320Z,190
2024-01-24T07:10:29.802Z,190
2024-01-24T07:11:02.083Z,190
2024-01-24T07:11:33.410Z,211
2024-01-24T07:12:06.118Z,211
2024-01-24T07:12:37.286Z,220
2024-01-24T07:13:10.194Z,239
2024-01-24T07:13:41.139Z,199
2024-01-24T07:14:15.961Z,243
2024-01-24T07:14:45.331Z,243
2024-01-24T07:15:19.586Z,206
2024-01-24T07:15:49.661Z,206
2024-01-24T07:16:22.022Z,206
2024-01-24T07:16:53.381Z,238
2024-01-24T07:17:26.355Z,238
2024-01-24T07:17:57.466Z,238
2024-01-24T07:18:30.127Z,238
2024-01-24T07:19:01.280Z,238
2024-01-24T07:19:34.113Z,238
2024-01-24T07:20:05.768Z,238
2024-01-24T07:20:38.028Z,238
2024-01-24T07:21:09.230Z,238